Nashotah, Wisconsin
Current Conditions -  °F | °C
As of 6:45 AM on Monday 20 Oct 2014 (Local Time) from KUES Reporting Station
Scattered Clouds Scattered Clouds  
Wind Chill: 42°   Ceiling: Unl
Heat Index: 45°   Visibility: 10mi
Dew Point: 41°   Wind: 5mph
Humidity: 87%   Direction: 280°W
Pressure: 29.79"   Gusts: NA
Location:  43.1°N, 88.4°W
Report Text: KUES 201145Z 28004KT 10SM SCT065 07/05 A2979
Loading
Personal Weather Stations






























Interactive Weather Map
Tropical Storm Tracking
New forecast layout! Learn more

10-Day Weather Forecast

Advertisements
Track Severe Weather on mobile